Time;durP1;ratioP1;P1;durP2;ratioP2;P2;SDS_P1;SDS_P2;PMS_P1;PMS_P2;Temp;Humidity;BMP_temperature;BMP_pressure;BME280_temperature;BME280_humidity;BME280_pressure;Samples;Min_cycle;Max_cycle;Signal;HPM_P1;HPM_P2
2022/12/22 03:28:07;;;;;;;3.30;2.50;;;;;;;8.13;100.00;100139.47;5096694;28;20047;-88
2022/12/22 03:30:33;;;;;;;3.53;2.85;;;;;;;8.12;100.00;100135.19;5096566;28;20028;-88
2022/12/22 03:32:58;;;;;;;3.57;2.60;;;;;;;8.11;100.00;100136.06;5096481;28;20031;-88
2022/12/22 03:35:23;;;;;;;3.30;2.60;;;;;;;8.11;100.00;100133.47;5096034;28;20020;-88
2022/12/22 03:37:50;;;;;;;2.50;2.30;;;;;;;8.09;100.00;100126.63;5096478;28;20107;-88
2022/12/22 03:40:15;;;;;;;4.97;3.50;;;;;;;8.08;100.00;100123.22;5096351;28;20119;-88
2022/12/22 03:48:37;;;;;;;3.72;2.90;;;;;;;8.06;100.00;100119.78;5105161;27;20073;-89
2022/12/22 03:51:02;;;;;;;3.58;2.90;;;;;;;8.05;100.00;100110.34;5136569;27;20023;-87
2022/12/22 03:53:27;;;;;;;3.40;2.77;;;;;;;8.05;100.00;100115.50;5137552;27;20144;-89
2022/12/22 03:55:53;;;;;;;4.00;2.80;;;;;;;8.07;100.00;100113.75;5137694;27;20023;-89
2022/12/22 03:58:18;;;;;;;2.88;2.40;;;;;;;8.08;100.00;100110.28;5136267;27;20455;-89
2022/12/22 04:01:06;;;;;;;3.23;2.80;;;;;;;8.08;100.00;100106.84;5136320;27;20106;-89
2022/12/22 04:03:31;;;;;;;2.50;2.30;;;;;;;8.06;100.00;100101.69;5136767;27;20027;-90
2022/12/22 04:05:56;;;;;;;2.40;2.20;;;;;;;8.02;100.00;100100.03;5136610;27;20019;-89
2022/12/22 04:08:22;;;;;;;2.70;2.30;;;;;;;8.05;100.00;100102.59;5136413;27;20030;-90
2022/12/22 04:13:42;;;;;;;2.90;2.35;;;;;;;8.02;100.00;100093.16;5117221;27;20043;-90
2022/12/22 04:16:14;;;;;;;2.60;2.40;;;;;;;8.02;100.00;100087.13;5113721;28;20110;-90
2022/12/22 04:18:39;;;;;;;2.20;2.00;;;;;;;8.01;100.00;100082.81;5116085;28;20039;-89
2022/12/22 04:21:04;;;;;;;2.53;2.20;;;;;;;8.01;100.00;100086.28;5116560;28;20024;-90
2022/12/22 04:23:29;;;;;;;2.63;2.30;;;;;;;8.03;100.00;100088.81;5116790;28;20101;-90
2022/12/22 04:25:55;;;;;;;2.30;2.10;;;;;;;8.02;100.00;100084.53;5116066;28;20024;-90
2022/12/22 04:28:32;;;;;;;2.20;2.00;;;;;;;8.03;100.00;100091.41;5116199;28;20020;-90
2022/12/22 04:30:57;;;;;;;2.40;2.20;;;;;;;8.04;100.00;100095.69;5116559;28;20065;-90
2022/12/22 04:33:23;;;;;;;2.30;2.10;;;;;;;8.05;100.00;100102.59;5115829;28;20020;-90
2022/12/22 04:35:48;;;;;;;2.10;1.90;;;;;;;8.04;100.00;100111.22;5115702;28;20387;-90
2022/12/22 04:38:22;;;;;;;2.22;2.03;;;;;;;8.03;100.00;100104.34;5115619;28;20714;-90
2022/12/22 04:40:47;;;;;;;2.20;2.00;;;;;;;8.04;100.00;100111.22;5116036;28;20015;-89
2022/12/22 04:43:13;;;;;;;2.00;1.90;;;;;;;8.04;100.00;100116.38;5115630;28;20046;-89
2022/12/22 04:45:38;;;;;;;1.90;1.80;;;;;;;8.05;100.00;100123.25;5115875;28;20028;-89
2022/12/22 04:48:04;;;;;;;2.20;2.00;;;;;;;8.06;100.00;100117.22;5115134;27;20050;-88
2022/12/22 04:50:34;;;;;;;1.90;1.80;;;;;;;8.06;100.00;100118.94;5135432;27;20079;-88
2022/12/22 04:53:00;;;;;;;2.03;1.90;;;;;;;8.06;100.00;100116.34;5135703;27;20023;-88
2022/12/22 04:55:25;;;;;;;1.90;1.80;;;;;;;8.04;100.00;100106.91;5135427;27;20425;-88
2022/12/22 04:57:50;;;;;;;2.10;1.90;;;;;;;8.03;100.00;100106.91;5119223;27;20024;-88
2022/12/22 05:00:16;;;;;;;1.80;1.70;;;;;;;8.04;100.00;100108.63;5114926;28;20024;-88
2022/12/22 05:02:41;;;;;;;2.00;1.90;;;;;;;8.03;100.00;100106.91;5115070;28;20051;-88
2022/12/22 05:05:24;;;;;;;2.00;1.90;;;;;;;8.01;100.00;100103.50;5114859;28;20121;-88
2022/12/22 05:07:50;;;;;;;1.90;1.80;;;;;;;7.99;100.00;100098.38;5115596;28;20073;-88
2022/12/22 05:10:15;;;;;;;2.00;1.90;;;;;;;7.98;100.00;100107.00;5115174;28;20023;-89
2022/12/22 05:12:55;;;;;;;2.20;2.00;;;;;;;7.92;100.00;100101.94;5115473;28;20016;-89
2022/12/22 05:15:23;;;;;;;2.10;2.00;;;;;;;7.92;100.00;100107.09;5114996;28;20075;-89
2022/12/22 05:17:48;;;;;;;2.10;1.90;;;;;;;7.92;100.00;100106.25;5115290;28;20080;-89
2022/12/22 05:20:14;;;;;;;2.30;2.10;;;;;;;7.91;100.00;100109.69;5115266;28;20414;-89
2022/12/22 05:22:48;;;;;;;2.25;2.05;;;;;;;7.91;100.00;100107.97;5115159;28;20024;-89
2022/12/22 05:25:18;;;;;;;2.40;2.20;;;;;;;7.91;100.00;100110.56;5114204;28;20020;-89
2022/12/22 05:27:45;;;;;;;2.20;2.00;;;;;;;7.92;100.00;100112.28;5115214;28;20035;-90
2022/12/22 05:30:11;;;;;;;2.30;2.10;;;;;;;7.92;100.00;100112.28;5114480;28;20019;-89
2022/12/22 05:32:47;;;;;;;2.67;2.30;;;;;;;7.93;100.00;100118.28;5115238;28;20030;-90
2022/12/22 05:35:12;;;;;;;2.20;2.00;;;;;;;7.94;100.00;100126.00;5112639;28;20391;-91
2022/12/22 05:37:38;;;;;;;2.10;1.93;;;;;;;7.93;100.00;100123.44;5114813;28;20027;-90
2022/12/22 05:40:05;;;;;;;2.20;2.00;;;;;;;7.92;100.00;100122.59;5115038;28;20421;-90
2022/12/22 05:42:48;;;;;;;1.92;1.83;;;;;;;7.92;100.00;100122.59;5114928;28;20058;-90
2022/12/22 05:45:18;;;;;;;2.20;2.00;;;;;;;7.93;100.00;100129.50;5114354;28;20016;-90
2022/12/22 05:47:47;;;;;;;2.15;1.95;;;;;;;7.95;100.00;100129.44;5114987;28;20092;-90
2022/12/22 05:50:23;;;;;;;2.10;1.90;;;;;;;7.96;100.00;100131.16;5133277;27;20027;-90
2022/12/22 05:52:49;;;;;;;;;;;;;;;7.97;100.00;100143.22;5135708;27;20024;-90
2022/12/22 05:55:15;;;;;;;2.03;1.87;;;;;;;7.97;100.00;100150.97;5135081;27;19911;-90
2022/12/22 05:57:42;;;;;;;2.10;1.90;;;;;;;7.96;100.00;100155.25;5133897;27;20027;-89
2022/12/22 06:00:21;;;;;;;2.10;1.90;;;;;;;7.97;100.00;100158.72;5124635;27;20392;-87
2022/12/22 06:02:46;;;;;;;2.25;2.05;;;;;;;7.98;100.00;100160.41;5112785;28;20582;-87
2022/12/22 06:05:33;;;;;;;1.90;1.80;;;;;;;7.98;100.00;100170.75;5130482;27;20027;-87
2022/12/22 06:07:58;;;;;;;1.90;1.80;;;;;;;7.96;100.00;100180.25;5113791;28;20123;-87
2022/12/22 06:10:24;;;;;;;1.87;1.77;;;;;;;7.93;100.00;100177.72;5114128;28;20508;-88
2022/12/22 06:13:00;;;;;;;1.80;1.70;;;;;;;7.93;100.00;100186.34;5114141;28;20023;-88
2022/12/22 06:15:25;;;;;;;2.67;2.30;;;;;;;7.92;100.00;100183.75;5114179;28;20031;-88
2022/12/22 06:17:50;;;;;;;2.00;1.80;;;;;;;7.93;100.00;100188.91;5114130;28;20024;-87
2022/12/22 06:20:16;;;;;;;2.67;2.17;;;;;;;7.94;100.00;100184.59;5113276;28;20034;-88
2022/12/22 06:22:41;;;;;;;2.88;2.10;;;;;;;7.96;100.00;100188.84;5114239;28;20452;-87
2022/12/22 06:25:07;;;;;;;3.80;2.60;;;;;;;7.96;100.00;100201.75;5120126;28;20117;-87
2022/12/22 06:27:32;;;;;;;5.20;3.10;;;;;;;7.95;100.00;100200.06;5119571;28;20031;-87
2022/12/22 06:29:57;;;;;;;7.43;3.80;;;;;;;7.96;100.00;100206.09;5120133;28;20024;-87
2022/12/22 06:32:26;;;;;;;6.87;3.80;;;;;;;7.97;100.00;100207.81;5119634;28;20027;-86
2022/12/22 06:34:51;;;;;;;7.80;4.00;;;;;;;7.99;100.00;100211.22;5118947;28;20033;-87
2022/12/22 06:37:16;;;;;;;9.00;4.50;;;;;;;7.99;100.00;100216.41;5102051;28;20430;-87
2022/12/22 06:39:42;;;;;;;9.90;4.70;;;;;;;7.99;100.00;100221.56;5099140;28;20035;-87
2022/12/22 06:44:54;;;;;;;18.63;8.65;;;;;;;7.99;100.00;100232.75;5100146;28;20089;-87
2022/12/22 06:47:20;;;;;;;16.23;7.35;;;;;;;7.99;100.00;100237.06;5098347;28;20020;-88
2022/12/22 06:49:45;;;;;;;18.97;8.70;;;;;;;7.99;100.00;100242.25;5100202;28;20047;-87
2022/12/22 06:52:10;;;;;;;18.42;8.27;;;;;;;7.98;100.00;100241.38;5099353;28;20028;-87
2022/12/22 06:54:36;;;;;;;19.77;9.17;;;;;;;7.97;100.00;100241.41;5114546;27;20039;-87
2022/12/22 06:57:01;;;;;;;18.75;8.30;;;;;;;7.97;100.00;100255.16;5120365;27;20049;-87
2022/12/22 06:59:27;;;;;;;18.73;8.70;;;;;;;7.96;100.00;100263.78;5138407;27;21663;-87
2022/12/22 07:01:52;;;;;;;19.25;9.13;;;;;;;7.97;100.00;100272.41;5140782;27;20031;-80
2022/12/22 07:04:19;;;;;;;18.73;8.80;;;;;;;7.97;100.00;100269.81;5133781;27;20051;-82
2022/12/22 07:06:46;;;;;;;19.80;9.20;;;;;;;7.96;100.00;100270.69;5119422;27;20084;-82
2022/12/22 07:09:11;;;;;;;20.33;9.30;;;;;;;7.94;100.00;100281.03;5119173;28;20114;-82
2022/12/22 07:11:36;;;;;;;19.52;8.80;;;;;;;7.93;100.00;100286.22;5119191;28;20112;-82
2022/12/22 07:14:02;;;;;;;20.57;9.30;;;;;;;7.93;100.00;100293.97;5119425;28;20024;-86
2022/12/22 07:16:27;;;;;;;19.50;9.10;;;;;;;7.92;100.00;100297.44;5122930;27;20109;-86
2022/12/22 07:18:52;;;;;;;19.20;8.55;;;;;;;7.92;100.00;100308.66;5134220;27;20042;-85
2022/12/22 07:21:17;;;;;;;18.40;7.80;;;;;;;7.89;100.00;100304.34;5118906;28;20571;-82
2022/12/22 07:23:43;;;;;;;16.75;7.00;;;;;;;7.89;100.00;100299.19;5118725;28;20023;-82
2022/12/22 07:26:10;;;;;;;15.70;6.40;;;;;;;7.88;100.00;100291.47;5119400;28;20024;-83
2022/12/22 07:28:37;;;;;;;15.73;6.13;;;;;;;7.86;100.00;100280.28;5118803;28;20479;-84
2022/12/22 07:31:03;;;;;;;12.82;5.25;;;;;;;7.83;100.00;100293.25;5119003;28;20019;-85
2022/12/22 07:33:29;;;;;;;12.07;5.20;;;;;;;7.82;100.00;100294.13;5119249;28;20023;-84
2022/12/22 07:36:09;;;;;;;9.67;4.33;;;;;;;7.82;100.00;100297.56;5115646;28;20703;-85
2022/12/22 07:38:38;;;;;;;8.48;3.95;;;;;;;7.79;100.00;100301.91;5116555;28;20114;-85
2022/12/22 07:42:43;;;;;;;9.23;4.00;;;;;;;7.77;100.00;100308.81;5116099;28;20489;-84
2022/12/22 07:43:51;;;;;;;8.23;3.80;;;;;;;7.75;100.00;100313.16;5114356;28;20122;-85
2022/12/22 07:46:16;;;;;;;6.82;3.40;;;;;;;7.74;100.00;100325.22;5115874;28;20070;-85
2022/12/22 07:51:25;;;;;;;6.45;3.08;;;;;;;7.73;100.00;100331.25;5135568;27;20042;-83
2022/12/22 07:53:50;;;;;;;7.10;3.30;;;;;;;7.72;100.00;100337.31;5136646;27;20024;-82
2022/12/22 07:56:15;;;;;;;14.60;5.30;;;;;;;7.72;100.00;100345.88;5136360;27;20469;-82
2022/12/22 07:58:41;;;;;;;13.30;5.00;;;;;;;7.72;100.00;100351.06;5135233;27;20027;-85
2022/12/22 08:01:06;;;;;;;15.23;5.97;;;;;;;7.72;100.00;100363.13;5135765;27;20360;-83
2022/12/22 08:03:31;;;;;;;16.63;6.33;;;;;;;7.70;100.00;100370.91;5136387;27;20011;-82
2022/12/22 08:05:57;;;;;;;19.37;7.60;;;;;;;7.71;100.00;100382.09;5135064;27;20110;-83
2022/12/22 08:08:22;;;;;;;20.63;8.57;;;;;;;7.69;100.00;100389.00;5128186;27;20028;-82
2022/12/22 08:10:47;;;;;;;19.98;8.00;;;;;;;7.68;100.00;100395.03;5115507;28;20275;-87
2022/12/22 08:13:15;;;;;;;22.03;9.30;;;;;;;7.65;100.00;100397.66;5115970;28;20030;-86
2022/12/22 08:15:41;;;;;;;21.67;9.55;;;;;;;7.61;100.00;100401.97;5115840;28;20019;-89
2022/12/22 08:18:06;;;;;;;20.97;9.00;;;;;;;7.63;100.00;100407.16;5115005;28;20077;-86
2022/12/22 08:20:32;;;;;;;20.70;8.47;;;;;;;7.63;100.00;100404.56;5115328;27;20103;-86
2022/12/22 08:22:57;;;;;;;22.13;8.70;;;;;;;7.64;100.00;100403.69;5115841;28;20033;-86
2022/12/22 08:25:23;;;;;;;23.03;10.33;;;;;;;7.59;100.00;100401.16;5114906;28;20521;-86
2022/12/22 08:27:58;;;;;;;23.10;9.97;;;;;;;7.57;100.00;100401.16;5114811;28;20456;-86
2022/12/22 08:30:23;;;;;;;21.75;9.80;;;;;;;7.58;100.00;100407.19;5114617;28;20066;-85
2022/12/22 08:32:49;;;;;;;21.20;8.57;;;;;;;7.57;100.00;100408.91;5114845;28;20039;-86
2022/12/22 08:35:15;;;;;;;18.40;7.30;;;;;;;7.58;100.00;100417.53;5115551;28;20016;-86
2022/12/22 08:37:44;;;;;;;17.07;6.70;;;;;;;7.58;100.00;100438.19;5115024;28;20525;-86
2022/12/22 08:40:23;;;;;;;15.88;6.18;;;;;;;7.57;100.00;100447.63;5114246;28;20491;-85
2022/12/22 08:42:53;;;;;;;11.98;5.10;;;;;;;7.58;100.00;100454.53;5114987;28;20575;-86
2022/12/22 08:45:18;;;;;;;12.20;4.65;;;;;;;7.57;100.00;100465.72;5115040;28;20019;-86
2022/12/22 08:47:44;;;;;;;12.23;4.70;;;;;;;7.60;100.00;100464.81;5114710;28;20024;-86
2022/12/22 08:50:22;;;;;;;9.00;4.10;;;;;;;7.61;100.00;100470.88;5130116;27;20479;-86
2022/12/22 08:52:47;;;;;;;9.93;4.20;;;;;;;7.62;100.00;100488.06;5135364;27;20172;-86
2022/12/22 08:55:13;;;;;;;8.03;3.53;;;;;;;7.62;100.00;100501.84;5135510;27;20049;-86
2022/12/22 08:57:38;;;;;;;8.38;3.58;;;;;;;7.63;100.00;100502.72;5135656;27;20459;-86
2022/12/22 09:00:07;;;;;;;8.30;3.45;;;;;;;7.64;100.00;100499.25;5118088;27;20528;-86
2022/12/22 09:02:32;;;;;;;14.57;5.40;;;;;;;7.61;100.00;100496.69;5114697;28;20349;-86
2022/12/22 09:04:58;;;;;;;12.13;4.80;;;;;;;7.59;100.00;100488.97;5114782;28;20041;-86
2022/12/22 09:07:23;;;;;;;10.23;4.47;;;;;;;7.57;100.00;100504.47;5114067;28;20031;-86
2022/12/22 09:09:48;;;;;;;9.57;4.13;;;;;;;7.55;100.00;100513.94;5114395;28;20043;-86
2022/12/22 09:12:14;;;;;;;13.50;5.03;;;;;;;7.52;100.00;100513.09;5114011;28;20043;-86
2022/12/22 09:14:39;;;;;;;14.53;5.80;;;;;;;7.49;100.00;100514.00;5113947;28;20031;-86
2022/12/22 09:17:05;;;;;;;12.17;4.83;;;;;;;7.48;100.00;100512.28;5115009;28;20065;-86
2022/12/22 09:19:30;;;;;;;13.93;5.23;;;;;;;7.46;100.00;100519.19;5124354;27;20046;-86
2022/12/22 09:21:55;;;;;;;13.52;4.93;;;;;;;7.44;100.00;100515.75;5134291;27;20024;-86
2022/12/22 09:24:21;;;;;;;12.60;4.67;;;;;;;7.42;100.00;100520.09;5134963;27;20520;-87
2022/12/22 09:26:46;;;;;;;11.13;4.35;;;;;;;7.41;100.00;100519.22;5134870;27;20042;-86
2022/12/22 09:29:14;;;;;;;9.68;4.00;;;;;;;7.42;100.00;100528.69;5134002;27;20455;-86
2022/12/22 09:31:40;;;;;;;8.50;3.80;;;;;;;7.45;100.00;100538.13;5135045;27;20490;-86
2022/12/22 09:34:06;;;;;;;8.45;3.55;;;;;;;7.49;100.00;100542.41;5134428;27;20018;-87
2022/12/22 09:36:32;;;;;;;8.63;3.33;;;;;;;7.55;100.00;100544.09;5134289;27;20019;-86
2022/12/22 09:39:02;;;;;;;9.37;4.17;;;;;;;7.60;100.00;100539.72;5134476;27;20034;-87
2022/12/22 09:41:42;;;;;;;14.10;4.90;;;;;;;7.65;100.00;100540.56;5134975;27;20019;-86
2022/12/22 09:44:17;;;;;;;16.85;6.45;;;;;;;7.69;100.00;100543.97;5133789;27;20516;-86
2022/12/22 09:46:43;;;;;;;15.52;6.35;;;;;;;7.73;100.00;100543.94;5125327;27;20028;-86
2022/12/22 09:49:13;;;;;;;17.57;6.73;;;;;;;7.76;100.00;100545.66;5114118;28;20127;-86
2022/12/22 09:51:45;;;;;;;19.08;7.57;;;;;;;7.79;100.00;100548.19;5113426;28;20030;-87
2022/12/22 09:54:12;;;;;;;17.80;7.22;;;;;;;7.77;100.00;100542.16;5113851;28;20046;-86
2022/12/22 09:56:37;;;;;;;17.50;7.20;;;;;;;7.73;100.00;100550.84;5113525;28;20477;-87
2022/12/22 09:59:21;;;;;;;15.30;6.13;;;;;;;7.66;100.00;100554.31;5113169;28;20051;-85
2022/12/22 10:02:04;;;;;;;17.45;6.90;;;;;;;7.65;100.00;100557.78;5113861;28;20059;-87
2022/12/22 10:04:55;;;;;;;16.52;6.85;;;;;;;7.65;100.00;100562.97;5113728;28;20082;-87
2022/12/22 10:07:32;;;;;;;17.50;6.90;;;;;;;7.70;100.00;100574.97;5113462;28;20023;-87
2022/12/22 10:10:28;;;;;;;17.63;7.22;;;;;;;7.71;100.00;100574.06;5113972;28;20077;-87
2022/12/22 10:12:55;;;;;;;20.27;7.28;;;;;;;7.75;100.00;100579.22;5113991;28;20434;-87
2022/12/22 10:15:21;;;;;;;17.00;7.05;;;;;;;7.77;100.00;100575.75;5109317;28;20099;-86
2022/12/22 10:17:49;;;;;;;18.50;7.97;;;;;;;7.81;100.00;100574.03;5113158;28;20039;-87
2022/12/22 10:20:28;;;;;;;21.60;9.05;;;;;;;7.79;100.00;100575.75;5113074;27;20472;-86
2022/12/22 10:22:59;;;;;;;22.80;10.73;;;;;;;7.79;100.00;100581.78;5113270;28;20061;-87
2022/12/22 10:25:36;;;;;;;23.73;11.80;;;;;;;7.75;100.00;100577.53;5112748;28;20023;-86
2022/12/22 10:28:19;;;;;;;24.88;12.07;;;;;;;7.70;100.00;100574.09;5111310;28;20039;-87
2022/12/22 10:30:45;;;;;;;22.77;11.02;;;;;;;7.68;100.00;100583.59;5113676;28;20133;-86
2022/12/22 10:33:17;;;;;;;21.40;9.93;;;;;;;7.71;100.00;100589.56;5112681;28;20487;-86
2022/12/22 10:35:55;;;;;;;21.55;9.65;;;;;;;7.72;100.00;100587.88;5113426;28;20471;-87
2022/12/22 10:38:35;;;;;;;19.48;9.02;;;;;;;7.71;100.00;100591.31;5112875;28;20035;-86
2022/12/22 10:41:23;;;;;;;19.15;8.82;;;;;;;7.75;100.00;100593.03;5113464;28;20067;-86
2022/12/22 10:43:52;;;;;;;20.42;8.90;;;;;;;7.79;100.00;100594.69;5112510;28;20064;-86
2022/12/22 10:46:27;;;;;;;21.48;9.63;;;;;;;7.78;100.00;100587.81;5117740;28;20031;-86
2022/12/22 10:49:06;;;;;;;21.80;9.38;;;;;;;7.75;100.00;100582.69;5133140;28;20023;-85
2022/12/22 10:51:31;;;;;;;19.38;8.32;;;;;;;7.77;100.00;100588.66;5132916;28;20114;-90
2022/12/22 10:53:57;;;;;;;17.30;7.67;;;;;;;7.78;100.00;100592.13;5129530;28;20098;-86
2022/12/22 10:56:22;;;;;;;17.83;7.20;;;;;;;7.81;100.00;100599.88;5112122;28;20027;-88
2022/12/22 10:58:53;;;;;;;18.20;8.00;;;;;;;7.83;100.00;100593.81;5112453;28;20110;-86
2022/12/22 11:01:29;;;;;;;20.90;8.60;;;;;;;7.88;100.00;100597.19;5111727;28;20072;-86
2022/12/22 11:03:56;;;;;;;20.83;9.05;;;;;;;7.95;100.00;100599.75;5112046;28;20031;-87
2022/12/22 11:06:21;;;;;;;20.75;9.35;;;;;;;8.01;100.00;100599.69;5112738;28;20030;-87
2022/12/22 11:08:47;;;;;;;20.48;8.52;;;;;;;8.02;100.00;100597.09;5113254;28;20028;-87
2022/12/22 11:11:37;;;;;;;19.80;8.07;;;;;;;8.04;100.00;100607.41;5116223;28;20016;-87
2022/12/22 11:14:15;;;;;;;19.80;7.78;;;;;;;8.06;100.00;100609.97;5116564;28;20020;-87
2022/12/22 11:16:54;;;;;;;19.98;8.18;;;;;;;8.02;100.00;100615.19;5125563;27;20027;-87
2022/12/22 11:19:38;;;;;;;18.35;8.13;;;;;;;7.99;100.00;100622.97;5137555;27;20065;-87
2022/12/22 11:22:18;;;;;;;18.98;8.18;;;;;;;7.98;100.00;100613.50;5136784;27;20080;-86
2022/12/22 11:25:23;;;;;;;19.48;8.18;;;;;;;7.96;100.00;100619.56;5135721;27;20062;-86
2022/12/22 11:28:11;;;;;;;19.40;8.43;;;;;;;7.93;100.00;100623.03;5137030;27;20031;-86
2022/12/22 11:30:54;;;;;;;21.27;8.98;;;;;;;7.94;100.00;100622.13;5137326;27;20034;-87
2022/12/22 11:33:44;;;;;;;20.92;9.60;;;;;;;7.96;100.00;100629.88;5136728;27;20383;-87
2022/12/22 11:36:24;;;;;;;23.20;11.23;;;;;;;7.95;100.00;100633.34;5135247;27;20597;-86
2022/12/22 11:39:13;;;;;;;23.42;11.80;;;;;;;7.96;100.00;100635.91;5136860;27;20375;-86
2022/12/22 11:42:05;;;;;;;23.00;11.55;;;;;;;8.01;100.00;100631.56;5136375;27;20031;-86
2022/12/22 11:44:43;;;;;;;21.45;11.27;;;;;;;8.04;100.00;100631.56;5097485;27;20048;-87
2022/12/22 11:47:43;;;;;;;22.70;11.02;;;;;;;8.09;100.00;100630.63;5124481;27;20019;-86
2022/12/22 11:50:23;;;;;;;22.70;11.02;;;;;;;8.16;100.00;100640.91;5114890;28;20032;-87
2022/12/22 11:53:00;;;;;;;22.05;10.90;;;;;;;8.19;100.00;100640.03;5116409;28;20158;-86
2022/12/22 11:55:34;;;;;;;24.02;12.20;;;;;;;8.23;100.00;100641.72;5115670;28;20402;-86
2022/12/22 11:58:27;;;;;;;23.52;12.10;;;;;;;8.24;100.00;100639.97;5115391;28;20051;-87
2022/12/22 12:01:00;;;;;;;25.00;14.00;;;;;;;8.28;100.00;100637.34;5116032;28;20024;-86
2022/12/22 12:03:44;;;;;;;25.73;14.30;;;;;;;8.16;100.00;100640.91;5115866;27;20035;-87
2022/12/22 12:06:45;;;;;;;24.60;13.60;;;;;;;8.14;100.00;100636.63;5115781;28;20076;-86
2022/12/22 12:09:10;;;;;;;26.35;14.25;;;;;;;8.07;100.00;100630.66;5084217;28;20685;-86
2022/12/22 12:11:47;;;;;;;24.83;13.80;;;;;;;8.05;100.00;100624.63;5120305;27;20019;-86
2022/12/22 12:14:12;;;;;;;26.20;14.15;;;;;;;8.03;100.00;100616.03;5136601;27;20379;-87
2022/12/22 12:16:46;;;;;;;24.10;12.73;;;;;;;8.04;100.00;100607.41;5118879;27;20024;-87
2022/12/22 12:19:30;;;;;;;21.52;10.68;;;;;;;8.09;100.00;100607.38;5115833;28;20586;-88
2022/12/22 12:22:03;;;;;;;22.13;10.50;;;;;;;8.18;100.00;100608.16;5118019;27;20023;-87
2022/12/22 12:24:58;;;;;;;21.77;10.55;;;;;;;8.21;100.00;100596.06;5115506;28;20476;-88
2022/12/22 12:27:42;;;;;;;20.42;9.57;;;;;;;8.23;100.00;100587.44;5115762;28;20024;-88
2022/12/22 12:30:16;;;;;;;22.15;10.13;;;;;;;8.23;100.00;100594.31;5122495;27;20050;-87
2022/12/22 12:33:01;;;;;;;21.27;9.93;;;;;;;8.26;100.00;100591.72;5136112;27;20023;-88
2022/12/22 12:35:48;;;;;;;19.52;8.70;;;;;;;8.28;100.00;100588.22;5136240;27;20027;-88
2022/12/22 12:38:24;;;;;;;19.45;8.50;;;;;;;8.28;100.00;100583.06;5136159;27;20035;-88
2022/12/22 12:40:55;;;;;;;19.30;8.53;;;;;;;8.29;100.00;100591.69;5136771;27;20015;-88
2022/12/22 12:43:22;;;;;;;17.10;7.95;;;;;;;8.28;100.00;100595.97;5131143;27;20118;-87
2022/12/22 12:45:47;;;;;;;17.83;7.85;;;;;;;8.27;100.00;100580.50;5120867;27;20464;-86
2022/12/22 12:48:19;;;;;;;19.70;9.43;;;;;;;8.25;100.00;100579.66;5114455;28;20064;-86
2022/12/22 12:50:49;;;;;;;18.92;8.90;;;;;;;8.21;100.00;100581.41;5115025;28;20042;-86
2022/12/22 12:53:16;;;;;;;18.35;8.30;;;;;;;8.19;100.00;100580.56;5113395;28;20034;-87
2022/12/22 12:55:53;;;;;;;18.33;8.02;;;;;;;8.18;100.00;100582.31;5115131;28;20100;-86
2022/12/22 12:58:36;;;;;;;16.25;7.38;;;;;;;8.19;100.00;100583.16;5114453;28;20027;-87
2022/12/22 13:01:04;;;;;;;15.40;6.70;;;;;;;8.22;100.00;100582.28;5113955;28;20024;-86
2022/12/22 13:03:29;;;;;;;12.57;5.93;;;;;;;8.23;100.00;100579.69;5114992;28;20023;-86
2022/12/22 13:06:03;;;;;;;12.87;5.77;;;;;;;8.24;100.00;100580.50;5114953;28;20522;-86
2022/12/22 13:08:29;;;;;;;12.32;5.50;;;;;;;8.27;100.00;100583.09;5113779;28;20043;-86
2022/12/22 13:10:54;;;;;;;13.50;6.50;;;;;;;8.29;100.00;100581.34;5114509;28;20154;-86
2022/12/22 13:13:22;;;;;;;14.00;6.47;;;;;;;8.30;100.00;100577.88;5113133;28;20417;-86
2022/12/22 13:16:00;;;;;;;12.18;5.68;;;;;;;8.34;100.00;100572.66;5114822;28;20036;-86
2022/12/22 13:18:27;;;;;;;11.43;5.60;;;;;;;8.38;100.00;100557.97;5114166;28;20032;-85
2022/12/22 13:20:59;;;;;;;12.82;6.00;;;;;;;8.40;100.00;100573.47;5113630;28;20045;-86
2022/12/22 13:23:29;;;;;;;15.02;6.90;;;;;;;8.37;100.00;100581.28;5114004;28;20353;-86
2022/12/22 13:26:01;;;;;;;14.63;6.50;;;;;;;8.32;100.00;100568.38;5114373;28;20408;-86
2022/12/22 13:28:28;;;;;;;17.30;7.93;;;;;;;8.30;100.00;100567.53;5113496;28;20032;-86
2022/12/22 13:31:02;;;;;;;16.65;7.00;;;;;;;8.27;100.00;100575.31;5113205;28;20024;-86
2022/12/22 13:33:30;;;;;;;19.15;8.93;;;;;;;8.26;100.00;100583.94;5112137;28;20019;-86
2022/12/22 13:35:57;;;;;;;19.88;9.02;;;;;;;8.21;100.00;100583.16;5113250;28;20456;-87
2022/12/22 13:38:29;;;;;;;20.42;10.25;;;;;;;8.18;100.00;100579.72;5113966;28;20035;-86
2022/12/22 13:40:56;;;;;;;21.50;10.90;;;;;;;8.17;100.00;100571.97;5114053;28;20026;-86
2022/12/22 13:43:22;;;;;;;19.77;10.15;;;;;;;8.19;100.00;100568.50;5113005;28;20040;-86
2022/12/22 13:45:50;;;;;;;18.33;8.63;;;;;;;8.19;100.00;100558.16;5113597;28;20082;-86
2022/12/22 13:48:22;;;;;;;18.58;9.10;;;;;;;8.22;100.00;100557.28;5113128;28;20031;-86
2022/12/22 13:50:51;;;;;;;17.60;8.70;;;;;;;8.19;100.00;100549.53;5113577;28;20024;-86
2022/12/22 13:53:44;;;;;;;17.13;8.52;;;;;;;8.17;100.00;100556.44;5113635;28;20034;-86
2022/12/22 13:56:16;;;;;;;16.33;7.65;;;;;;;8.15;100.00;100546.13;5112840;28;20387;-86
2022/12/22 13:58:44;;;;;;;14.85;6.93;;;;;;;8.14;100.00;100553.91;5113641;28;20106;-87
2022/12/22 14:01:09;;;;;;;14.30;6.85;;;;;;;8.14;100.00;100544.41;5113146;28;20023;-86
2022/12/22 14:03:35;;;;;;;11.27;5.63;;;;;;;8.14;100.00;100541.84;5113061;28;20418;-86
2022/12/22 14:06:00;;;;;;;11.07;5.63;;;;;;;8.12;100.00;100535.81;5113888;28;20050;-86
2022/12/22 14:08:26;;;;;;;13.50;6.20;;;;;;;8.11;100.00;100534.09;5113100;28;20445;-85
2022/12/22 14:10:54;;;;;;;13.55;6.25;;;;;;;8.08;100.00;100529.00;5112252;28;20027;-86
2022/12/22 14:13:25;;;;;;;10.65;5.45;;;;;;;8.08;100.00;100536.75;5112502;28;20446;-86
2022/12/22 14:16:01;;;;;;;12.30;5.93;;;;;;;8.05;100.00;100539.34;5113794;28;20073;-86
2022/12/22 14:18:27;;;;;;;9.70;5.15;;;;;;;8.02;100.00;100535.06;5112684;28;20387;-86
2022/12/22 14:20:53;;;;;;;10.43;5.00;;;;;;;8.02;100.00;100522.16;5113466;28;20019;-86
2022/12/22 14:23:39;;;;;;;10.52;4.75;;;;;;;8.02;100.00;100524.75;5113176;28;20094;-86
2022/12/22 14:26:06;;;;;;;8.90;4.65;;;;;;;7.98;100.00;100517.88;5113110;28;20035;-85
2022/12/22 14:28:39;;;;;;;10.18;5.35;;;;;;;7.97;100.00;100511.00;5113447;28;20095;-86
2022/12/22 14:31:07;;;;;;;10.25;5.30;;;;;;;8.00;100.00;100510.97;5112428;28;20023;-86
2022/12/22 14:33:34;;;;;;;9.57;4.80;;;;;;;7.94;100.00;100497.25;5113332;28;20487;-86
2022/12/22 14:36:22;;;;;;;8.77;4.78;;;;;;;7.93;100.00;100499.00;5113331;28;20524;-86
2022/12/22 14:38:58;;;;;;;9.00;4.32;;;;;;;7.93;100.00;100499.00;5112147;28;20051;-86
2022/12/22 14:41:45;;;;;;;9.30;4.70;;;;;;;7.89;100.00;100500.72;5113085;28;20022;-87
2022/12/22 14:44:21;;;;;;;9.88;5.25;;;;;;;7.88;100.00;100493.84;5113166;28;20043;-87
2022/12/22 14:47:11;;;;;;;9.20;4.50;;;;;;;7.87;100.00;100492.16;5116366;28;20027;-87
2022/12/22 14:49:45;;;;;;;8.60;4.50;;;;;;;7.84;100.00;100488.72;5117778;28;20036;-87
2022/12/22 14:52:38;;;;;;;8.60;4.82;;;;;;;7.83;100.00;100480.13;5114669;28;20054;-86
2022/12/22 14:55:05;;;;;;;7.88;4.32;;;;;;;7.82;100.00;100482.75;5105793;28;20395;-87
2022/12/22 14:57:39;;;;;;;8.18;4.40;;;;;;;7.79;100.00;100483.59;5117078;28;20077;-86
2022/12/22 15:00:26;;;;;;;7.45;4.28;;;;;;;7.78;100.00;100489.63;5116512;28;20028;-87
2022/12/22 15:02:57;;;;;;;8.73;4.88;;;;;;;7.77;100.00;100476.75;5116447;28;20494;-87
2022/12/22 15:05:36;;;;;;;7.47;4.30;;;;;;;7.75;100.00;100487.09;5116747;28;20429;-86
2022/12/22 15:08:03;;;;;;;7.70;4.20;;;;;;;7.73;100.00;100488.84;5116075;28;20371;-85
2022/12/22 15:10:38;;;;;;;6.22;4.00;;;;;;;7.70;100.00;100479.41;5116638;28;20541;-86
2022/12/22 15:13:06;;;;;;;6.45;3.90;;;;;;;7.70;100.00;100481.09;5115700;28;20546;-86
2022/12/22 15:15:37;;;;;;;6.47;3.88;;;;;;;7.68;100.00;100475.09;5117530;28;20023;-86
2022/12/22 15:18:13;;;;;;;6.80;3.80;;;;;;;7.65;100.00;100465.66;5116544;28;20051;-86